createdAt,value
2023-01-13T00:01:41.494Z,25.77
2023-01-13T00:07:43.708Z,19.58
2023-01-13T00:13:46.614Z,21.60
2023-01-13T00:19:48.584Z,30.30
2023-01-13T00:25:50.582Z,31.48
2023-01-13T00:31:52.728Z,25.52
2023-01-13T00:37:54.990Z,28.17
2023-01-13T00:43:57.025Z,25.67
2023-01-13T00:49:59.108Z,22.50
2023-01-13T00:56:02.219Z,27.48
2023-01-13T01:02:04.378Z,25.05
2023-01-13T01:08:06.560Z,22.60
2023-01-13T01:14:11.445Z,21.15
2023-01-13T01:20:13.601Z,25.02
2023-01-13T01:26:18.987Z,26.50
2023-01-13T01:32:21.031Z,20.25
2023-01-13T01:38:23.603Z,19.67
2023-01-13T01:44:50.765Z,19.13
2023-01-13T01:50:53.316Z,18.75
2023-01-13T02:03:01.566Z,26.02
2023-01-13T02:09:04.019Z,19.77
2023-01-13T02:15:10.631Z,27.10
2023-01-13T02:21:37.037Z,29.98
2023-01-13T02:28:14.147Z,31.65
2023-01-13T02:34:39.161Z,26.00
2023-01-13T02:40:49.013Z,35.25
2023-01-13T02:47:08.940Z,32.22
2023-01-13T02:53:35.892Z,28.30
2023-01-13T02:59:40.048Z,29.98
2023-01-13T03:05:44.798Z,35.10
2023-01-13T03:11:59.821Z,31.40
2023-01-13T03:18:09.268Z,31.30
2023-01-13T03:24:22.983Z,38.95
2023-01-13T03:30:43.270Z,28.50
2023-01-13T03:36:48.777Z,30.00
2023-01-13T03:43:17.672Z,26.55
2023-01-13T03:49:23.565Z,28.45
2023-01-13T03:55:30.509Z,20.95
2023-01-13T04:01:39.199Z,29.42
2023-01-13T04:07:46.389Z,26.45
2023-01-13T04:13:49.974Z,24.27
2023-01-13T04:19:52.105Z,25.92
2023-01-13T04:25:55.222Z,26.88
2023-01-13T04:31:57.325Z,29.92
2023-01-13T04:38:04.428Z,25.60
2023-01-13T04:44:06.444Z,25.38
2023-01-13T04:50:10.497Z,29.33
2023-01-13T04:56:12.567Z,29.50
2023-01-13T05:02:20.192Z,26.58
2023-01-13T05:08:22.467Z,28.90
2023-01-13T05:14:43.181Z,29.15
2023-01-13T05:20:46.039Z,37.58
2023-01-13T05:26:48.138Z,33.60
2023-01-13T05:32:50.285Z,35.13
2023-01-13T05:38:52.326Z,33.53
2023-01-13T05:44:54.562Z,38.33
2023-01-13T05:50:57.168Z,67.53
2023-01-13T05:56:59.234Z,56.20
2023-01-13T06:03:01.436Z,38.42
2023-01-13T06:09:03.933Z,47.38
2023-01-13T06:15:06.652Z,45.85
2023-01-13T06:21:08.857Z,46.65
2023-01-13T06:27:11.139Z,48.42
2023-01-13T06:33:23.893Z,44.75
2023-01-13T06:39:30.959Z,68.60
2023-01-13T06:45:33.040Z,45.97
2023-01-13T06:51:35.329Z,38.95
2023-01-13T06:57:57.180Z,35.80
2023-01-13T07:03:59.524Z,39.65
2023-01-13T07:10:02.461Z,37.47
2023-01-13T07:16:07.504Z,35.42
2023-01-13T07:22:09.542Z,40.08
2023-01-13T07:28:11.835Z,43.60
2023-01-13T07:34:13.913Z,36.35
2023-01-13T07:40:16.347Z,38.03
2023-01-13T07:52:21.077Z,39.00
2023-01-13T07:58:23.775Z,31.88
2023-01-13T08:04:25.958Z,32.17
2023-01-13T08:10:28.027Z,32.33
2023-01-13T08:16:33.140Z,28.08
2023-01-13T08:22:35.258Z,38.00
2023-01-13T08:28:38.203Z,32.72
2023-01-13T08:34:40.385Z,36.03
2023-01-13T08:40:42.687Z,37.28
2023-01-13T08:46:44.749Z,33.65
2023-01-13T08:52:47.064Z,46.55
2023-01-13T08:58:49.263Z,37.67
2023-01-13T09:04:51.753Z,38.38
2023-01-13T09:10:54.014Z,36.70
2023-01-13T09:16:56.476Z,30.95
2023-01-13T09:22:58.717Z,30.88
2023-01-13T09:29:00.916Z,34.20
2023-01-13T09:35:04.069Z,33.72
2023-01-13T09:41:26.085Z,28.88
2023-01-13T09:47:33.961Z,35.10
2023-01-13T09:53:45.699Z,33.40
2023-01-13T09:59:48.789Z,42.05
2023-01-13T10:05:59.140Z,37.38
2023-01-13T10:12:21.335Z,35.47
2023-01-13T10:18:35.293Z,37.80
2023-01-13T10:25:10.376Z,34.00
2023-01-13T10:31:13.624Z,34.53
2023-01-13T10:37:24.815Z,38.70
2023-01-13T10:43:29.106Z,33.40
2023-01-13T10:49:37.169Z,47.50
2023-01-13T10:55:39.227Z,44.55
2023-01-13T11:02:03.960Z,49.17
2023-01-13T11:08:26.320Z,39.20
2023-01-13T11:14:43.674Z,42.28
2023-01-13T11:20:49.333Z,40.42
2023-01-13T11:27:17.589Z,33.65
2023-01-13T11:33:48.586Z,32.72
2023-01-13T11:39:59.845Z,38.97
2023-01-13T11:46:02.966Z,36.35
2023-01-13T11:52:45.735Z,30.35
2023-01-13T11:59:26.839Z,31.98
2023-01-13T12:05:40.174Z,29.25
2023-01-13T12:12:20.452Z,24.90
2023-01-13T12:19:09.159Z,34.53
2023-01-13T12:25:22.302Z,27.48
2023-01-13T12:37:27.249Z,30.77
2023-01-13T12:43:48.914Z,33.33
2023-01-13T12:49:51.067Z,31.05
2023-01-13T12:55:53.721Z,26.77
2023-01-13T13:08:17.168Z,33.83
2023-01-13T13:14:41.999Z,32.00
2023-01-13T13:21:03.999Z,29.50
2023-01-13T13:27:37.403Z,25.70
2023-01-13T13:33:50.079Z,27.58
2023-01-13T13:40:11.215Z,25.58
2023-01-13T13:46:48.110Z,26.95
2023-01-13T13:59:01.416Z,21.38
2023-01-13T14:05:15.106Z,24.58
2023-01-13T14:11:28.721Z,21.10
2023-01-13T14:17:31.298Z,25.27
2023-01-13T14:23:34.244Z,25.10
2023-01-13T14:29:37.231Z,28.20
2023-01-13T14:35:39.302Z,24.52
2023-01-13T14:41:50.780Z,25.67
2023-01-13T14:47:55.841Z,23.67
2023-01-13T14:53:58.695Z,23.88
2023-01-13T15:00:08.742Z,20.90
2023-01-13T15:06:24.683Z,23.95
2023-01-13T15:12:36.853Z,26.75
2023-01-13T15:18:41.501Z,29.20
2023-01-13T15:24:43.665Z,21.70
2023-01-13T15:30:46.092Z,20.55
2023-01-13T15:36:48.163Z,19.85
2023-01-13T15:43:08.817Z,22.40
2023-01-13T15:49:26.631Z,22.25
2023-01-13T15:55:29.359Z,22.52
2023-01-13T16:07:33.740Z,23.52
2023-01-13T16:13:35.752Z,23.00
2023-01-13T16:19:37.859Z,27.60
2023-01-13T16:25:43.339Z,26.13
2023-01-13T16:31:45.449Z,27.23
2023-01-13T16:37:48.869Z,24.67
2023-01-13T16:43:51.245Z,28.63
2023-01-13T16:49:53.325Z,32.40
2023-01-13T16:55:55.508Z,25.63
2023-01-13T17:01:57.623Z,26.27
2023-01-13T17:07:59.653Z,26.88
2023-01-13T17:14:10.428Z,27.43
2023-01-13T17:20:20.860Z,23.70
2023-01-13T17:26:37.413Z,22.33
2023-01-13T17:32:39.702Z,26.00
2023-01-13T17:38:41.905Z,26.95
2023-01-13T17:44:44.175Z,23.63
2023-01-13T17:50:50.311Z,23.73
2023-01-13T17:56:52.513Z,23.58
2023-01-13T18:02:54.797Z,24.17
2023-01-13T18:08:59.761Z,19.95
2023-01-13T18:15:01.953Z,19.65
2023-01-13T18:21:23.415Z,28.15
2023-01-13T18:27:34.965Z,25.65
2023-01-13T18:33:37.282Z,22.63
2023-01-13T18:39:39.288Z,26.85
2023-01-13T18:45:41.950Z,26.65
2023-01-13T18:57:47.160Z,20.08
2023-01-13T19:03:57.769Z,21.73
2023-01-13T19:09:59.948Z,20.73
2023-01-13T19:16:08.930Z,20.48
2023-01-13T19:22:20.008Z,26.08
2023-01-13T19:28:22.465Z,28.40
2023-01-13T19:34:25.854Z,26.27
2023-01-13T19:40:27.958Z,28.20
2023-01-13T19:46:30.021Z,34.60
2023-01-13T19:52:32.296Z,30.05
2023-01-13T19:58:34.328Z,30.27
2023-01-13T20:04:39.218Z,28.33
2023-01-13T20:10:42.977Z,31.20
2023-01-13T20:16:45.273Z,32.20
2023-01-13T20:22:49.458Z,38.03
2023-01-13T20:28:51.683Z,33.67
2023-01-13T20:34:53.903Z,31.73
2023-01-13T20:41:22.302Z,36.17
2023-01-13T20:47:24.973Z,29.83
2023-01-13T20:59:29.529Z,33.00
2023-01-13T21:05:32.905Z,29.42
2023-01-13T21:11:54.392Z,31.50
2023-01-13T21:18:15.210Z,30.05
2023-01-13T21:24:17.403Z,33.88
2023-01-13T21:30:20.127Z,42.90
2023-01-13T21:36:22.864Z,33.35
2023-01-13T21:42:44.316Z,33.75
2023-01-13T21:48:46.718Z,43.55
2023-01-13T21:55:07.728Z,35.45
2023-01-13T22:01:13.035Z,29.48
2023-01-13T22:07:15.346Z,27.83
2023-01-13T22:13:36.417Z,29.00
2023-01-13T22:19:42.481Z,31.27
2023-01-13T22:25:44.833Z,33.70
2023-01-13T22:31:47.553Z,30.42
2023-01-13T22:43:52.084Z,33.97
2023-01-13T22:49:54.248Z,34.08
2023-01-13T22:56:00.440Z,38.25
2023-01-13T23:02:02.823Z,32.30
2023-01-13T23:08:05.442Z,34.88
2023-01-13T23:20:11.350Z,35.13
2023-01-13T23:26:14.070Z,29.92
2023-01-13T23:32:16.336Z,31.05
2023-01-13T23:38:18.621Z,28.30
2023-01-13T23:44:20.873Z,30.20
2023-01-13T23:50:23.132Z,28.23
2023-01-13T23:56:30.626Z,25.23
